Talmaciu, Romania
Current Conditions -  °F | °C
As of 8:00 PM on Friday 31 Oct 2014 (Local Time) from LRSB Reporting Station
Clear Clear  
Wind Chill: 36°   Ceiling: Unl
Heat Index: 41°   Visibility: 6mi
Dew Point: 36°   Wind: 7mph
Humidity: 81%   Direction: 270°W
Pressure: 30.27"   Gusts: NA
Location:  45.68°N, 24.27°E
Report Text: LRSB 311700Z 27006KT CAVOK 05/02 Q1025
Loading
Personal Weather Stations






























Interactive Weather Map
Tropical Storm Tracking
New forecast layout! Learn more

10-Day Weather Forecast

Advertisements
Track Severe Weather on mobile